Terminal Aerodrome Forecast
Issued by NWS Cleveland, OH

Current Version | Previous Version | Text Only | Print | Product List | Glossary On
Versions: 1 2 3 4 5 6 7 8 9 10 11 12 13 14 15 16 17 18 19 20 21 22 23 24 25
000
FTUS41 KCLE 020700 AAA
TAFMFD
TAF AMD
KMFD 020702Z 0207/0306 28014KT 6SM BR OVC008
      TEMPO 0208/0212 5SM BR SCT008 OVC012
     FM021200 28012KT 6SM BR OVC015
      TEMPO 0212/0213 5SM BR
     FM021400 28012KT P6SM SCT012 BKN025
     FM021600 28010KT P6SM SCT030
     FM030000 VRB03KT P6SM BKN250=

USA.gov is the U.S. government's official web portal to all federal, state and local government web resources and services.